CheckWX is a tool to help pilots better visualize weather data.  It is not intended as a substitute for an official pre-flight weather briefing.

09:27:28 UTC

KOLS METAR
Nogales International Airport
Nogales, Arizona, USA
Current

33 mins ago

KOLS 200854Z AUTO 07004KT 10SM CLR M03/M09 A3002 RMK AO2 SLP160 T10331089 58006
Observed
Feb-20 @ 08:54 UTC
Wind
  • 070° at 4 KTS
Visibility
16,093 meters
Flight Rules
VFR
Cloud Levels
  • Clear skies
Temperature
-3°C / 27°F
Dewpoint
-9°C / 16°F
Humidity
64%
Altimeter
30.02" Hg
Pressure
1016 hPa
Previous

2 hours ago

KOLS 200754Z AUTO 00000KT 10SM CLR M03/M09 A3004 RMK AO2 SLP170 T10331089
Observed
Feb-20 @ 07:54 UTC
Visibility
16,093 meters
Flight Rules
VFR
Cloud Levels
  • Clear skies
Temperature
-3°C / 27°F
Dewpoint
-9°C / 16°F
Humidity
64%
Altimeter
30.04" Hg
Pressure
1017 hPa
Previous

3 hours ago

KOLS 200654Z AUTO 00000KT 10SM CLR M03/M09 A3004 RMK AO2 SLP171 T10331089 400941033
Observed
Feb-20 @ 06:54 UTC
Visibility
16,093 meters
Flight Rules
VFR
Cloud Levels
  • Clear skies
Temperature
-3°C / 27°F
Dewpoint
-9°C / 16°F
Humidity
64%
Altimeter
30.04" Hg
Pressure
1017.1 hPa